Авиационная погода в Астрахани

Регион: 
Погода METAR: 
URWA 271200Z 25007MPS 8000 OVC010 05/04 Q1012 R27/290050 NOSIG RMK QFE761/1014
Время наблюдения
2021-02-27T12:00:00Z
Температура C
5.0
Точка росы
4.0
Направление ветра
250
Скорость ветра (узлы)
14
Метео видимость
4.97
Явления погоды
Условия полета
MVFR
Аэропорт подробнее: